Time;durP1;ratioP1;P1;durP2;ratioP2;P2;SDS_P1;SDS_P2;PMS_P1;PMS_P2;Temp;Humidity;BMP_temperature;BMP_pressure;BME280_temperature;BME280_humidity;BME280_pressure;Samples;Min_cycle;Max_cycle;Signal;HPM_P1;HPM_P2
2022/01/06 08:14:44;;;;;;;;;;;;;;;13.07;77.67;99168.91;5264694;22;2010;-65
2022/01/06 08:17:11;;;;;;;;;;;;;;;13.16;77.02;99176.63;5011706;28;1324;-55
2022/01/06 08:19:38;;;;;;;;;;;;;;;13.19;76.27;99175.78;5012069;28;900;-55
2022/01/06 08:22:05;;;;;;;;;;;;;;;13.05;76.05;99163.03;5012075;28;843;-55
2022/01/06 08:24:30;;;;;;;;;;;;;;;12.95;75.42;99177.16;4994502;28;2502;-54
2022/01/06 08:26:57;;;;;;;;;;;;;;;13.04;75.79;99182.91;5012035;28;863;-53
2022/01/06 08:29:23;;;;;;;;;;;;;;;13.00;75.89;99182.97;5012203;28;848;-52
2022/01/06 08:31:50;;;;;;;;;;;;;;;13.03;75.90;99184.09;5012075;28;812;-53
2022/01/06 08:34:16;;;;;;;;;;;;;;;13.08;75.34;99175.28;5012106;28;1923;-55
2022/01/06 08:36:42;;;;;;;;;;;;;;;13.11;75.96;99185.47;5012101;28;847;-53
2022/01/06 08:39:09;;;;;;;;;;;;;;;13.14;75.06;99178.28;5012012;28;970;-54
2022/01/06 08:41:55;;;;;;;;;;;;;;;13.15;75.35;99185.41;5012144;28;844;-54
2022/01/06 08:44:21;;;;;;;;;;;;;;;13.39;75.33;99192.31;5011571;28;891;-53
2022/01/06 08:46:48;;;;;;;;;;;;;;;13.68;74.93;99184.03;5012027;28;840;-55
2022/01/06 08:49:15;;;;;;;;;;;;;;;13.79;73.13;99196.84;5011724;28;844;-55
2022/01/06 08:51:42;;;;;;;;;;;;;;;13.64;73.77;99191.66;5011706;28;859;-54
2022/01/06 08:54:09;;;;;;;;;;;;;;;13.41;73.99;99189.13;4994115;28;1946;-55
2022/01/06 08:56:36;;;;;;;;;;;;;;;13.40;74.59;99191.13;5011679;28;808;-55
2022/01/06 08:59:03;;;;;;;;;;;;;;;13.47;74.24;99179.81;5011513;28;946;-54
2022/01/06 09:01:30;;;;;;;;;;;;;;;13.51;75.03;99182.50;5011578;28;900;-54
2022/01/06 09:03:57;;;;;;;;;;;;;;;13.67;74.24;99188.00;5011643;28;836;-52
2022/01/06 09:06:23;;;;;;;;;;;;;;;13.95;73.73;99182.09;5011442;28;938;-53
2022/01/06 09:08:50;;;;;;;;;;;;;;;14.27;72.81;99183.94;5011561;28;887;-54
2022/01/06 09:11:18;;;;;;;;;;;;;;;14.50;71.33;99177.28;5011183;28;844;-54
2022/01/06 09:13:46;;;;;;;;;;;;;;;14.60;71.46;99175.44;5011720;28;1890;-54
2022/01/06 09:16:13;;;;;;;;;;;;;;;14.54;71.26;99175.19;5013766;28;1282;-55
2022/01/06 09:18:40;;;;;;;;;;;;;;;14.58;70.44;99170.31;5015439;28;891;-54
2022/01/06 09:21:08;;;;;;;;;;;;;;;14.73;70.74;99173.41;5015274;28;883;-55
2022/01/06 09:23:35;;;;;;;;;;;;;;;14.74;69.75;99171.41;5015275;28;896;-55
2022/01/06 09:26:01;;;;;;;;;;;;;;;14.82;70.03;99173.50;5015025;28;916;-54
2022/01/06 09:28:28;;;;;;;;;;;;;;;14.93;69.52;99156.47;5015269;28;867;-53
2022/01/06 09:30:55;;;;;;;;;;;;;;;14.77;69.57;99168.53;5015081;28;930;-53
2022/01/06 09:33:22;;;;;;;;;;;;;;;14.69;70.04;99170.75;5014982;28;1922;-52
2022/01/06 09:35:50;;;;;;;;;;;;;;;14.65;70.25;99169.31;5014996;28;867;-54
2022/01/06 09:38:16;;;;;;;;;;;;;;;14.56;70.82;99167.19;5015248;28;844;-52
2022/01/06 09:40:44;;;;;;;;;;;;;;;14.69;70.08;99154.06;5015176;28;828;-54
2022/01/06 09:43:14;;;;;;;;;;;;;;;14.63;70.77;99160.63;5014945;28;820;-54
2022/01/06 09:45:41;;;;;;;;;;;;;;;14.69;70.58;99162.41;5015258;28;832;-53
2022/01/06 09:48:08;;;;;;;;;;;;;;;14.82;69.77;99162.38;5015102;28;867;-55
2022/01/06 09:50:42;;;;;;;;;;;;;;;14.66;70.00;99154.19;5014869;28;990;-55
2022/01/06 09:53:10;;;;;;;;;;;;;;;14.49;71.32;99151.50;5014535;28;1894;-55
2022/01/06 09:55:37;;;;;;;;;;;;;;;14.42;71.38;99150.91;5014736;28;847;-55
2022/01/06 09:58:03;;;;;;;;;;;;;;;14.53;72.28;99147.81;5014413;28;896;-54
2022/01/06 10:00:32;;;;;;;;;;;;;;;14.63;72.18;99158.63;5014433;28;892;-55
2022/01/06 10:03:01;;;;;;;;;;;;;;;14.66;72.02;99151.41;5014742;28;808;-54
2022/01/06 10:05:37;;;;;;;;;;;;;;;14.72;71.39;99155.16;5014545;28;834;-54
2022/01/06 10:08:05;;;;;;;;;;;;;;;14.77;71.74;99146.28;5015209;28;824;-55
2022/01/06 10:10:30;;;;;;;;;;;;;;;14.88;70.41;99145.91;5014518;28;927;-55
2022/01/06 10:12:59;;;;;;;;;;;;;;;15.07;71.53;99147.66;5014730;28;1910;-55
2022/01/06 10:15:27;;;;;;;;;;;;;;;15.17;70.20;99142.97;5014454;28;1225;-55
2022/01/06 10:17:55;;;;;;;;;;;;;;;15.26;70.16;99145.06;4996905;28;828;-56
2022/01/06 10:20:23;;;;;;;;;;;;;;;15.42;69.81;99150.44;5014155;28;915;-56
2022/01/06 10:22:51;;;;;;;;;;;;;;;15.67;68.46;99134.84;5014180;28;911;-56
2022/01/06 10:25:19;;;;;;;;;;;;;;;15.73;67.99;99141.44;5014538;28;938;-55
2022/01/06 10:27:46;;;;;;;;;;;;;;;15.66;69.09;99142.44;5014069;28;816;-56
2022/01/06 10:30:13;;;;;;;;;;;;;;;15.99;67.82;99136.47;4996414;28;1284;-56
2022/01/06 10:32:40;;;;;;;;;;;;;;;15.98;65.63;99137.72;5013932;28;944;-56
2022/01/06 10:35:08;;;;;;;;;;;;;;;15.85;66.91;99137.00;5014195;28;1906;-56
2022/01/06 10:37:40;;;;;;;;;;;;;;;15.85;66.71;99131.44;5013918;28;903;-55
2022/01/06 10:40:16;;;;;;;;;;;;;;;15.61;67.54;99137.44;5013708;28;880;-56
2022/01/06 10:42:46;;;;;;;;;;;;;;;15.64;67.65;99124.59;5014054;28;903;-56
2022/01/06 10:45:17;;;;;;;;;;;;;;;15.64;66.89;99133.75;5013737;28;848;-57
2022/01/06 10:47:48;;;;;;;;;;;;;;;15.70;66.59;99129.16;5013623;28;927;-57
2022/01/06 10:50:19;;;;;;;;;;;;;;;15.86;66.07;99135.78;5013788;28;867;-56
2022/01/06 10:52:49;;;;;;;;;;;;;;;15.90;66.12;99126.06;5013643;28;879;-56
2022/01/06 10:55:17;;;;;;;;;;;;;;;15.87;66.54;99134.53;5013832;28;1878;-56
2022/01/06 10:57:50;;;;;;;;;;;;;;;16.01;65.89;99122.88;5013570;28;816;-56
2022/01/06 11:00:17;;;;;;;;;;;;;;;15.78;66.37;99123.34;5013486;28;899;-56
2022/01/06 11:02:44;;;;;;;;;;;;;;;15.69;66.13;99121.25;4996073;28;914;-56
2022/01/06 11:05:11;;;;;;;;;;;;;;;15.69;66.88;99129.59;5013270;28;987;-57
2022/01/06 11:07:38;;;;;;;;;;;;;;;15.81;66.33;99122.44;5013465;28;903;-56
2022/01/06 11:10:15;;;;;;;;;;;;;;;15.76;66.12;99123.78;5013245;28;899;-56
2022/01/06 11:13:09;;;;;;;;;;;;;;;15.66;66.47;99125.72;5013451;28;1054;-57
2022/01/06 11:15:36;;;;;;;;;;;;;;;15.50;65.92;99118.31;5013033;28;1408;-57
2022/01/06 11:18:05;;;;;;;;;;;;;;;15.32;67.09;99123.75;4995809;28;1596;-57
2022/01/06 11:20:32;;;;;;;;;;;;;;;15.50;66.45;99115.53;5013548;28;935;-57
2022/01/06 11:22:59;;;;;;;;;;;;;;;15.61;67.02;99100.44;4995649;28;861;-57
2022/01/06 11:25:52;;;;;;;;;;;;;;;15.83;65.23;99115.19;4995866;28;859;-57
2022/01/06 11:28:18;;;;;;;;;;;;;;;15.52;66.40;99118.66;4971014;28;1506;-56
2022/01/06 11:30:47;;;;;;;;;;;;;;;15.29;66.79;99122.63;5012923;28;1017;-57
2022/01/06 11:45:25;;;;;;;;;;;;;;;15.04;68.23;99115.19;5013068;28;690;-57
2022/01/06 11:48:03;;;;;;;;;;;;;;;15.05;66.97;99110.38;4995362;28;797;-57
2022/01/06 11:50:36;;;;;;;;;;;;;;;15.02;67.11;99105.69;5012472;28;844;-57
2022/01/06 11:53:04;;;;;;;;;;;;;;;15.18;67.11;99108.31;5013198;28;1965;-57
2022/01/06 11:55:35;;;;;;;;;;;;;;;15.43;65.04;99104.66;4995190;28;1295;-57
2022/01/06 11:58:10;;;;;;;;;;;;;;;15.33;65.15;99111.38;4994934;28;1361;-58
2022/01/06 12:00:39;;;;;;;;;;;;;;;15.13;65.06;99114.47;5012474;28;933;-57
2022/01/06 12:03:11;;;;;;;;;;;;;;;15.15;65.60;99116.78;5012218;28;883;-57
2022/01/06 12:05:48;;;;;;;;;;;;;;;15.34;64.55;99101.03;4994665;28;1240;-57
2022/01/06 12:08:22;;;;;;;;;;;;;;;15.64;64.01;99111.47;4994605;28;1743;-57
2022/01/06 12:10:50;;;;;;;;;;;;;;;15.85;63.37;99107.16;5012554;28;824;-57
2022/01/06 12:13:17;;;;;;;;;;;;;;;15.88;62.51;99105.47;5012346;28;1894;-57
2022/01/06 12:15:58;;;;;;;;;;;;;;;15.90;62.73;99105.78;5011640;28;1067;-57
2022/01/06 12:18:26;;;;;;;;;;;;;;;15.97;62.69;99104.72;4992516;28;835;-57
2022/01/06 12:20:53;;;;;;;;;;;;;;;16.08;62.32;99103.06;4992711;28;793;-58
2022/01/06 12:23:20;;;;;;;;;;;;;;;16.15;61.43;99104.03;4974973;28;1484;-57
2022/01/06 12:26:00;;;;;;;;;;;;;;;16.05;61.10;99097.66;4992424;28;804;-56
2022/01/06 12:28:32;;;;;;;;;;;;;;;15.91;61.29;99094.16;4974956;28;1190;-56
2022/01/06 12:31:00;;;;;;;;;;;;;;;15.86;62.10;99099.56;4992228;28;892;-57
2022/01/06 12:33:32;;;;;;;;;;;;;;;16.03;61.51;99100.13;4992364;28;1938;-57
2022/01/06 12:36:26;;;;;;;;;;;;;;;15.76;60.41;99095.16;4992172;28;900;-56
2022/01/06 12:38:53;;;;;;;;;;;;;;;15.71;61.02;99097.31;4992195;28;893;-57
2022/01/06 12:41:28;;;;;;;;;;;;;;;15.97;61.18;99094.34;4992382;28;899;-57
2022/01/06 12:43:55;;;;;;;;;;;;;;;16.21;60.37;99091.81;4974589;28;1174;-57
2022/01/06 12:46:23;;;;;;;;;;;;;;;16.28;59.71;99102.72;4992056;28;927;-57
2022/01/06 12:48:51;;;;;;;;;;;;;;;16.36;59.45;99092.03;4992005;28;883;-57
2022/01/06 12:51:19;;;;;;;;;;;;;;;16.31;60.33;99103.81;4973865;28;1369;-57
2022/01/06 12:53:47;;;;;;;;;;;;;;;16.34;59.78;99111.25;4990737;28;1894;-57
2022/01/06 12:56:26;;;;;;;;;;;;;;;16.16;59.13;99116.75;4992014;28;873;-57
2022/01/06 12:58:55;;;;;;;;;;;;;;;15.90;60.45;99116.94;4992538;28;836;-56
2022/01/06 13:01:21;;;;;;;;;;;;;;;15.66;60.44;99114.59;4958737;28;1170;-57
2022/01/06 13:03:51;;;;;;;;;;;;;;;15.77;60.46;99111.44;4991873;28;965;-57
2022/01/06 13:06:19;;;;;;;;;;;;;;;15.88;60.26;99116.59;4991883;28;980;-57
2022/01/06 13:09:09;;;;;;;;;;;;;;;15.90;60.16;99122.50;4991970;28;800;-57
2022/01/06 13:11:48;;;;;;;;;;;;;;;15.61;59.92;99128.31;4982492;28;1811;-57
2022/01/06 13:14:26;;;;;;;;;;;;;;;15.23;61.21;99130.00;4992242;28;1894;-57
2022/01/06 13:16:53;;;;;;;;;;;;;;;14.83;62.57;99130.56;5000398;28;1297;-57
2022/01/06 13:19:20;;;;;;;;;;;;;;;14.67;63.30;99133.47;4994025;28;901;-57
2022/01/06 13:21:59;;;;;;;;;;;;;;;14.64;63.72;99128.84;5011442;28;911;-57
2022/01/06 13:24:36;;;;;;;;;;;;;;;14.80;63.67;99123.13;5011445;28;1411;-57
2022/01/06 13:27:07;;;;;;;;;;;;;;;15.19;62.50;99132.16;5011412;28;859;-57
2022/01/06 13:29:42;;;;;;;;;;;;;;;15.28;62.24;99128.69;4993750;28;1345;-57
2022/01/06 13:32:11;;;;;;;;;;;;;;;15.32;61.84;99129.34;5011277;28;911;-58
2022/01/06 13:34:40;;;;;;;;;;;;;;;15.10;62.36;99138.41;5011235;28;1918;-56
2022/01/06 13:37:17;;;;;;;;;;;;;;;15.17;62.85;99131.84;5011245;28;844;-57
2022/01/06 13:39:43;;;;;;;;;;;;;;;14.95;62.82;99137.31;5011316;28;824;-57
2022/01/06 13:42:23;;;;;;;;;;;;;;;14.75;63.82;99134.81;5011288;28;1002;-57
2022/01/06 13:48:20;;;;;;;;;;;;;;;15.05;63.54;99141.75;5011317;28;1790;-57
2022/01/06 13:53:32;;;;;;;;;;;;;;;15.24;62.17;99148.28;4996449;28;1966;-57
2022/01/06 13:55:58;;;;;;;;;;;;;;;15.32;62.59;99148.81;5011180;28;808;-57
2022/01/06 13:58:25;;;;;;;;;;;;;;;15.22;62.42;99145.16;4993550;28;1406;-57
2022/01/06 14:00:52;;;;;;;;;;;;;;;15.10;62.79;99149.53;5011321;28;831;-57
2022/01/06 14:03:19;;;;;;;;;;;;;;;14.99;62.89;99154.69;4997071;28;902;-57
2022/01/06 14:05:46;;;;;;;;;;;;;;;14.85;63.00;99153.16;5014485;28;816;-57
2022/01/06 14:08:13;;;;;;;;;;;;;;;14.62;63.79;99159.84;4997281;28;864;-57
2022/01/06 14:10:42;;;;;;;;;;;;;;;14.28;64.68;99152.16;5014481;28;887;-57
2022/01/06 14:13:08;;;;;;;;;;;;;;;13.95;65.83;99168.97;5014478;28;1886;-56
2022/01/06 14:15:35;;;;;;;;;;;;;;;13.68;66.73;99161.81;5014414;28;804;-57
2022/01/06 14:18:03;;;;;;;;;;;;;;;13.45;67.57;99164.81;5013944;28;1371;-57
2022/01/06 14:20:29;;;;;;;;;;;;;;;13.27;68.50;99171.59;5014494;28;824;-57
2022/01/06 14:22:56;;;;;;;;;;;;;;;13.04;69.17;99175.34;5014601;28;828;-56
2022/01/06 14:25:22;;;;;;;;;;;;;;;12.86;69.72;99172.22;5014205;28;899;-56
2022/01/06 14:27:48;;;;;;;;;;;;;;;12.66;70.23;99170.31;5014226;28;863;-56
2022/01/06 14:30:17;;;;;;;;;;;;;;;12.52;71.00;99175.41;4996702;28;828;-57
2022/01/06 14:32:43;;;;;;;;;;;;;;;12.39;71.28;99189.16;5014211;28;1009;-57
2022/01/06 14:35:10;;;;;;;;;;;;;;;12.25;71.84;99179.94;5013895;28;1914;-56
2022/01/06 14:37:36;;;;;;;;;;;;;;;12.15;72.21;99189.28;5013963;28;939;-56
2022/01/06 14:40:03;;;;;;;;;;;;;;;12.18;72.78;99184.84;5013791;28;867;-57
2022/01/06 14:42:29;;;;;;;;;;;;;;;12.17;72.85;99192.38;5014047;28;845;-57
2022/01/06 14:44:56;;;;;;;;;;;;;;;12.16;72.90;99192.81;5013933;28;891;-57
2022/01/06 14:47:22;;;;;;;;;;;;;;;12.07;72.96;99193.38;5014135;28;895;-56
2022/01/06 14:49:49;;;;;;;;;;;;;;;11.96;72.98;99190.84;5013934;28;824;-57
2022/01/06 14:52:15;;;;;;;;;;;;;;;11.78;73.19;99190.41;4996498;28;872;-56
2022/01/06 14:54:41;;;;;;;;;;;;;;;11.57;73.94;99192.38;5013587;28;1890;-57
2022/01/06 14:57:07;;;;;;;;;;;;;;;11.41;74.83;99197.78;5013610;28;856;-56
2022/01/06 14:59:34;;;;;;;;;;;;;;;11.36;74.67;99207.38;5013516;28;1006;-56
2022/01/06 15:02:02;;;;;;;;;;;;;;;11.24;75.34;99203.25;5013519;28;812;-56
2022/01/06 15:04:28;;;;;;;;;;;;;;;11.11;75.63;99198.72;5013234;28;938;-56
2022/01/06 15:06:55;;;;;;;;;;;;;;;10.91;76.43;99204.19;5013490;28;868;-56
2022/01/06 15:09:21;;;;;;;;;;;;;;;10.71;76.76;99204.06;5013341;28;879;-57
2022/01/06 15:11:49;;;;;;;;;;;;;;;10.62;77.14;99216.47;5013231;28;929;-57
2022/01/06 15:14:17;;;;;;;;;;;;;;;10.62;77.96;99218.41;5012336;28;1953;-56
2022/01/06 15:16:43;;;;;;;;;;;;;;;10.69;77.53;99218.34;5013073;28;1241;-56
2022/01/06 15:19:10;;;;;;;;;;;;;;;10.72;77.77;99220.25;5013233;28;895;-56
2022/01/06 15:21:37;;;;;;;;;;;;;;;10.71;77.42;99220.66;5013316;28;847;-56
2022/01/06 15:24:07;;;;;;;;;;;;;;;10.84;77.93;99221.66;5012969;28;996;-56
2022/01/06 15:26:34;;;;;;;;;;;;;;;10.88;77.41;99222.41;5013413;28;847;-56
2022/01/06 15:29:01;;;;;;;;;;;;;;;10.78;77.11;99224.13;5013208;28;840;-57
2022/01/06 15:31:28;;;;;;;;;;;;;;;10.70;77.31;99228.19;4995691;28;952;-56
2022/01/06 15:33:55;;;;;;;;;;;;;;;10.62;77.46;99226.72;5012961;28;1906;-56
2022/01/06 15:36:22;;;;;;;;;;;;;;;10.63;77.86;99228.28;5013251;28;894;-56
2022/01/06 15:38:51;;;;;;;;;;;;;;;10.68;77.97;99243.63;5012983;28;864;-56
2022/01/06 15:41:19;;;;;;;;;;;;;;;10.61;77.73;99236.22;5012758;28;918;-57
2022/01/06 15:43:46;;;;;;;;;;;;;;;10.56;77.82;99229.19;5012760;28;847;-56
2022/01/06 15:46:12;;;;;;;;;;;;;;;10.56;77.71;99229.19;5012682;28;875;-56
2022/01/06 15:48:39;;;;;;;;;;;;;;;10.59;77.68;99238.59;5012658;28;942;-56
2022/01/06 15:51:06;;;;;;;;;;;;;;;10.54;77.48;99237.09;5012718;28;903;-56
2022/01/06 15:53:33;;;;;;;;;;;;;;;10.63;76.73;99242.88;5012465;28;1948;-57
2022/01/06 15:55:59;;;;;;;;;;;;;;;10.69;76.64;99243.22;5012599;28;824;-56
2022/01/06 15:58:27;;;;;;;;;;;;;;;10.72;76.21;99244.34;5012514;28;926;-56
2022/01/06 16:06:06;;;;;;;;;;;;;;;11.00;74.37;99249.44;5012418;28;674;-56
2022/01/06 16:08:33;;;;;;;;;;;;;;;11.04;74.39;99254.94;5012996;28;812;-56
2022/01/06 16:11:00;;;;;;;;;;;;;;;10.99;74.03;99260.94;4994919;28;867;-56
2022/01/06 16:13:27;;;;;;;;;;;;;;;11.01;74.02;99259.31;4994683;28;1919;-56
2022/01/06 16:15:54;;;;;;;;;;;;;;;11.01;73.62;99255.78;5012862;28;805;-56
2022/01/06 16:18:20;;;;;;;;;;;;;;;11.00;73.72;99266.03;5012056;28;1150;-56
2022/01/06 16:20:52;;;;;;;;;;;;;;;11.05;73.49;99259.25;5012214;28;930;-56
2022/01/06 16:23:25;;;;;;;;;;;;;;;11.05;73.36;99264.78;5012057;28;1054;-56
2022/01/06 16:25:52;;;;;;;;;;;;;;;11.01;73.68;99264.06;5011827;28;934;-56
2022/01/06 16:28:19;;;;;;;;;;;;;;;10.99;73.56;99272.78;5012174;28;828;-56
2022/01/06 16:30:47;;;;;;;;;;;;;;;10.94;73.65;99275.22;4994339;28;931;-56
2022/01/06 16:33:15;;;;;;;;;;;;;;;10.96;73.54;99273.59;5011790;28;1918;-56
2022/01/06 16:35:41;;;;;;;;;;;;;;;11.07;73.37;99276.19;5012222;28;887;-56
2022/01/06 16:38:07;;;;;;;;;;;;;;;11.20;73.26;99281.94;5011827;28;903;-56
2022/01/06 16:40:34;;;;;;;;;;;;;;;11.31;72.79;99290.06;5011951;28;828;-56
2022/01/06 16:43:00;;;;;;;;;;;;;;;11.21;73.09;99295.34;5011673;28;965;-56
2022/01/06 16:45:27;;;;;;;;;;;;;;;10.83;73.49;99298.28;5011857;28;824;-56
2022/01/06 16:47:54;;;;;;;;;;;;;;;10.50;74.62;99307.44;5012055;28;834;-56
2022/01/06 16:50:20;;;;;;;;;;;;;;;10.24;75.54;99301.38;5012068;28;804;-56
2022/01/06 16:52:48;;;;;;;;;;;;;;;9.96;76.12;99308.78;5011637;28;923;-56
2022/01/06 16:55:16;;;;;;;;;;;;;;;9.76;77.12;99305.81;5011571;28;1943;-56
2022/01/06 16:57:42;;;;;;;;;;;;;;;9.64;77.13;99308.31;5011523;28;973;-56
2022/01/06 17:00:10;;;;;;;;;;;;;;;9.63;77.72;99313.03;5011611;28;853;-56
2022/01/06 17:02:39;;;;;;;;;;;;;;;9.56;77.66;99308.38;5011429;28;1074;-56
2022/01/06 17:05:09;;;;;;;;;;;;;;;9.46;78.44;99314.75;5011561;28;888;-56
2022/01/06 17:07:35;;;;;;;;;;;;;;;9.33;78.79;99313.69;5011360;28;943;-56
2022/01/06 17:10:04;;;;;;;;;;;;;;;9.20;79.03;99325.19;5011417;28;928;-56
2022/01/06 17:12:30;;;;;;;;;;;;;;;9.12;79.05;99328.41;5011646;28;940;-56
2022/01/06 17:14:57;;;;;;;;;;;;;;;8.96;79.50;99324.19;5011671;28;1882;-56
2022/01/06 17:17:22;;;;;;;;;;;;;;;8.88;79.81;99324.63;5011331;28;1262;-56
2022/01/06 17:19:49;;;;;;;;;;;;;;;8.99;80.07;99325.34;5011501;28;804;-56
2022/01/06 17:22:16;;;;;;;;;;;;;;;9.24;79.84;99336.22;5011608;28;848;-56
2022/01/06 17:24:42;;;;;;;;;;;;;;;9.40;79.75;99336.47;5011658;28;828;-56
2022/01/06 17:27:10;;;;;;;;;;;;;;;9.32;79.72;99337.72;5011254;28;927;-56
2022/01/06 17:29:36;;;;;;;;;;;;;;;9.12;80.14;99340.22;5011235;28;883;-56
2022/01/06 17:32:03;;;;;;;;;;;;;;;8.99;81.07;99345.41;5011272;28;848;-57
2022/01/06 17:34:31;;;;;;;;;;;;;;;9.00;81.14;99348.94;5011321;28;1967;-56
2022/01/06 17:36:57;;;;;;;;;;;;;;;8.88;81.26;99343.91;5013454;28;847;-56
2022/01/06 17:39:24;;;;;;;;;;;;;;;8.88;81.59;99346.69;5015173;28;824;-56
2022/01/06 17:41:51;;;;;;;;;;;;;;;8.85;81.29;99351.00;5014950;28;840;-56
2022/01/06 17:44:18;;;;;;;;;;;;;;;8.81;81.72;99358.50;5015082;28;859;-56
2022/01/06 17:46:45;;;;;;;;;;;;;;;8.81;81.87;99357.72;5014964;28;824;-56
2022/01/06 17:49:12;;;;;;;;;;;;;;;8.59;81.99;99361.34;5014925;28;812;-56
2022/01/06 17:51:39;;;;;;;;;;;;;;;8.56;82.56;99364.13;4997275;28;966;-56
2022/01/06 17:54:06;;;;;;;;;;;;;;;8.61;82.94;99362.94;4997499;28;1945;-56
2022/01/06 17:56:33;;;;;;;;;;;;;;;8.68;82.99;99371.16;5014745;28;877;-56
2022/01/06 17:59:00;;;;;;;;;;;;;;;8.75;82.52;99365.63;4996999;28;824;-56
2022/01/06 18:01:27;;;;;;;;;;;;;;;8.68;82.41;99365.66;5014514;28;909;-56
2022/01/06 18:03:54;;;;;;;;;;;;;;;8.70;83.19;99366.03;5014621;28;831;-56
2022/01/06 18:06:26;;;;;;;;;;;;;;;8.78;83.17;99368.34;5014574;28;1008;-56
2022/01/06 18:11:30;;;;;;;;;;;;;;;8.97;82.55;99371.81;5014482;28;733;-57
2022/01/06 18:14:01;;;;;;;;;;;;;;;8.88;82.44;99375.00;5014811;28;1878;-56
2022/01/06 18:16:28;;;;;;;;;;;;;;;8.79;82.41;99380.97;5014309;28;1215;-56
2022/01/06 18:18:57;;;;;;;;;;;;;;;8.86;82.55;99379.38;5014401;28;824;-56
2022/01/06 18:21:24;;;;;;;;;;;;;;;8.74;82.52;99386.09;5014192;28;958;-56
2022/01/06 18:23:51;;;;;;;;;;;;;;;8.58;83.02;99394.81;5014340;28;860;-56
2022/01/06 18:26:17;;;;;;;;;;;;;;;8.36;83.14;99394.06;5013962;28;1083;-56
2022/01/06 18:28:43;;;;;;;;;;;;;;;8.13;83.37;99403.56;5014250;28;821;-56
2022/01/06 18:31:10;;;;;;;;;;;;;;;8.00;83.66;99401.59;5013939;28;912;-56
2022/01/06 18:33:38;;;;;;;;;;;;;;;7.91;84.62;99402.78;5014280;28;1917;-56
2022/01/06 18:36:06;;;;;;;;;;;;;;;7.85;84.46;99398.06;5014233;28;902;-56
2022/01/06 18:38:34;;;;;;;;;;;;;;;7.74;84.81;99398.84;5014030;28;1052;-56
2022/01/06 18:41:01;;;;;;;;;;;;;;;7.73;85.37;99399.25;5013838;28;908;-56
2022/01/06 18:43:28;;;;;;;;;;;;;;;7.75;85.88;99400.44;5013860;28;839;-56
2022/01/06 18:45:54;;;;;;;;;;;;;;;7.73;85.79;99407.50;5013782;28;914;-56
2022/01/06 18:48:22;;;;;;;;;;;;;;;7.63;85.59;99408.28;5013729;28;911;-56
2022/01/06 18:50:49;;;;;;;;;;;;;;;7.72;87.29;99414.97;5013712;28;922;-56
2022/01/06 18:53:15;;;;;;;;;;;;;;;7.81;86.67;99416.53;4995966;28;1897;-56
2022/01/06 18:55:43;;;;;;;;;;;;;;;7.89;87.00;99420.84;5013561;28;856;-56
2022/01/06 18:58:09;;;;;;;;;;;;;;;7.98;87.19;99424.03;5013613;28;871;-56
2022/01/06 19:00:36;;;;;;;;;;;;;;;7.98;86.17;99429.53;5013482;28;852;-56
2022/01/06 19:03:04;;;;;;;;;;;;;;;7.80;85.90;99435.00;5013783;28;832;-56
2022/01/06 19:05:32;;;;;;;;;;;;;;;7.72;86.96;99430.69;5013417;28;888;-56
2022/01/06 19:07:59;;;;;;;;;;;;;;;7.70;86.74;99427.53;5013520;28;828;-56
2022/01/06 19:10:27;;;;;;;;;;;;;;;7.70;87.40;99433.03;4996117;28;891;-56
2022/01/06 19:12:54;;;;;;;;;;;;;;;7.83;86.82;99438.94;5013548;28;944;-56
2022/01/06 19:15:22;;;;;;;;;;;;;;;7.94;86.99;99450.75;5013170;28;1934;-56
2022/01/06 19:17:50;;;;;;;;;;;;;;;7.98;86.57;99446.03;5012980;28;1362;-56
2022/01/06 19:20:17;;;;;;;;;;;;;;;8.01;86.04;99456.25;5013122;28;919;-56
2022/01/06 19:22:44;;;;;;;;;;;;;;;7.96;86.27;99462.94;5013304;28;867;-56
2022/01/06 19:25:10;;;;;;;;;;;;;;;7.99;86.36;99464.09;5013041;28;836;-56
2022/01/06 19:27:40;;;;;;;;;;;;;;;7.95;86.66;99466.84;5013373;28;815;-56
2022/01/06 19:30:07;;;;;;;;;;;;;;;7.90;86.18;99464.50;5012900;28;978;-56
2022/01/06 19:32:34;;;;;;;;;;;;;;;7.89;87.05;99471.16;5012968;28;887;-56
2022/01/06 19:35:01;;;;;;;;;;;;;;;7.85;86.52;99464.09;5012827;28;1902;-56
2022/01/06 19:37:27;;;;;;;;;;;;;;;7.89;86.47;99473.91;4995378;28;2547;-56
2022/01/06 19:39:54;;;;;;;;;;;;;;;7.85;86.34;99475.09;5012855;28;856;-56
2022/01/06 19:42:20;;;;;;;;;;;;;;;7.82;86.84;99473.94;5012824;28;860;-56
2022/01/06 19:44:47;;;;;;;;;;;;;;;7.89;86.91;99473.91;5012801;28;941;-56
2022/01/06 19:47:14;;;;;;;;;;;;;;;7.90;86.97;99472.75;5012821;28;982;-56
2022/01/06 19:49:40;;;;;;;;;;;;;;;7.89;86.97;99478.66;5012606;28;896;-56
2022/01/06 19:52:07;;;;;;;;;;;;;;;7.85;86.34;99478.66;5012646;28;911;-56
2022/01/06 19:54:34;;;;;;;;;;;;;;;7.71;86.80;99464.88;5012523;28;1930;-56
2022/01/06 19:57:00;;;;;;;;;;;;;;;7.78;87.44;99484.13;5012589;28;890;-56
2022/01/06 19:59:29;;;;;;;;;;;;;;;7.83;87.32;99477.47;5011916;28;870;-56
2022/01/06 20:01:56;;;;;;;;;;;;;;;7.94;87.11;99465.28;5012509;28;832;-56
2022/01/06 20:04:24;;;;;;;;;;;;;;;8.00;87.01;99468.44;5012391;28;955;-56
2022/01/06 20:06:52;;;;;;;;;;;;;;;8.11;86.41;99468.44;5012332;28;954;-56
2022/01/06 20:09:19;;;;;;;;;;;;;;;8.10;86.30;99464.88;5012310;28;812;-56
2022/01/06 20:11:46;;;;;;;;;;;;;;;8.04;86.31;99460.16;5012196;28;921;-56
2022/01/06 20:14:12;;;;;;;;;;;;;;;8.13;85.65;99464.13;5012182;28;1902;-56
2022/01/06 20:16:38;;;;;;;;;;;;;;;8.09;85.53;99465.31;5012062;28;1410;-56
2022/01/06 20:19:08;;;;;;;;;;;;;;;8.08;85.72;99464.50;5012200;28;844;-56
2022/01/06 20:21:35;;;;;;;;;;;;;;;8.10;86.49;99464.09;5012151;28;855;-56
2022/01/06 20:24:01;;;;;;;;;;;;;;;8.15;85.90;99463.69;5012119;28;884;-56
2022/01/06 20:26:28;;;;;;;;;;;;;;;8.33;85.43;99475.50;5012009;28;857;-56
2022/01/06 20:28:55;;;;;;;;;;;;;;;8.46;85.11;99470.41;5012001;28;844;-56
2022/01/06 20:31:22;;;;;;;;;;;;;;;8.52;84.18;99476.28;5011938;28;883;-56
2022/01/06 20:33:48;;;;;;;;;;;;;;;8.46;84.38;99470.41;5011965;28;1915;-56
2022/01/06 20:36:15;;;;;;;;;;;;;;;8.47;84.54;99473.94;5011941;28;923;-57
2022/01/06 20:38:42;;;;;;;;;;;;;;;8.58;84.28;99474.72;5011839;28;958;-56
2022/01/06 20:41:09;;;;;;;;;;;;;;;8.74;83.21;99477.81;5011811;28;940;-56
2022/01/06 20:43:35;;;;;;;;;;;;;;;8.89;82.16;99470.28;5011967;28;840;-56
2022/01/06 20:46:04;;;;;;;;;;;;;;;8.83;81.48;99479.34;5011755;28;935;-56
2022/01/06 20:51:16;;;;;;;;;;;;;;;8.72;80.97;99482.16;5011811;28;647;-57
2022/01/06 20:53:48;;;;;;;;;;;;;;;8.52;81.40;99490.84;5011524;28;1902;-57
2022/01/06 20:56:18;;;;;;;;;;;;;;;8.44;82.05;99488.50;5012067;28;860;-56
2022/01/06 20:58:45;;;;;;;;;;;;;;;8.62;81.23;99494.78;5011598;28;809;-56
2022/01/06 21:01:13;;;;;;;;;;;;;;;8.89;79.36;99495.09;5011858;28;832;-56
2022/01/06 21:03:39;;;;;;;;;;;;;;;9.22;77.50;99506.00;5011694;28;907;-56
2022/01/06 21:06:06;;;;;;;;;;;;;;;9.40;76.33;99510.25;5011538;28;857;-57
2022/01/06 21:08:33;;;;;;;;;;;;;;;9.53;75.42;99529.88;5011642;28;939;-56
2022/01/06 21:11:00;;;;;;;;;;;;;;;9.55;74.93;99522.00;5011901;28;904;-56
2022/01/06 21:13:26;;;;;;;;;;;;;;;9.52;74.42;99530.31;5015982;28;1886;-56
2022/01/06 21:15:54;;;;;;;;;;;;;;;9.46;74.61;99534.66;5015487;28;926;-56
2022/01/06 21:18:20;;;;;;;;;;;;;;;9.40;74.91;99535.06;5015587;28;1607;-56
2022/01/06 21:20:47;;;;;;;;;;;;;;;9.30;75.21;99546.16;4998164;28;896;-56
2022/01/06 21:23:13;;;;;;;;;;;;;;;8.42;76.86;99549.47;5015622;28;812;-56
2022/01/06 21:25:40;;;;;;;;;;;;;;;8.07;78.29;99542.75;5016099;28;792;-56
2022/01/06 21:28:06;;;;;;;;;;;;;;;7.98;79.22;99543.16;4997986;28;848;-56
2022/01/06 21:30:33;;;;;;;;;;;;;;;7.91;79.10;99553.34;5015375;28;824;-56
2022/01/06 21:32:59;;;;;;;;;;;;;;;7.71;80.02;99547.41;5015101;28;1405;-56
2022/01/06 21:35:26;;;;;;;;;;;;;;;7.93;81.32;99551.75;5015255;28;1979;-56
2022/01/06 21:37:53;;;;;;;;;;;;;;;8.45;79.61;99556.97;4997623;28;825;-56
2022/01/06 21:40:21;;;;;;;;;;;;;;;8.66;78.49;99561.66;5014973;28;966;-56
2022/01/06 21:42:47;;;;;;;;;;;;;;;8.98;76.60;99558.06;5015203;28;903;-56
2022/01/06 21:45:14;;;;;;;;;;;;;;;9.14;75.49;99574.19;5015238;28;1051;-56
2022/01/06 21:47:41;;;;;;;;;;;;;;;8.76;76.24;99568.34;5014886;28;866;-56
2022/01/06 21:50:10;;;;;;;;;;;;;;;8.55;77.30;99574.66;5015128;28;935;-56
2022/01/06 21:52:37;;;;;;;;;;;;;;;8.63;77.29;99580.97;5015095;28;879;-56
2022/01/06 21:55:04;;;;;;;;;;;;;;;8.46;77.02;99577.03;5014975;28;1890;-56
2022/01/06 21:57:30;;;;;;;;;;;;;;;8.14;78.12;99573.03;5015109;28;872;-56